createdAt,value
2023-03-17T00:01:09.060Z,10.60
2023-03-17T00:03:58.131Z,8.43
2023-03-17T00:06:43.022Z,12.90
2023-03-17T00:09:28.245Z,11.27
2023-03-17T00:14:57.919Z,8.10
2023-03-17T00:20:32.530Z,7.32
2023-03-17T00:23:20.943Z,9.45
2023-03-17T00:26:05.800Z,11.50
2023-03-17T00:31:40.049Z,9.30
2023-03-17T00:34:24.923Z,9.98
2023-03-17T00:39:55.687Z,8.23
2023-03-17T00:45:29.006Z,7.93
2023-03-17T00:48:19.073Z,11.18
2023-03-17T00:51:04.658Z,7.97
2023-03-17T00:53:49.968Z,9.38
2023-03-17T00:56:36.844Z,5.18
2023-03-17T00:59:28.342Z,7.57
2023-03-17T01:02:13.992Z,8.75
2023-03-17T01:05:06.363Z,7.88
2023-03-17T01:07:57.819Z,10.68
2023-03-17T01:10:42.902Z,7.10
2023-03-17T01:13:29.065Z,7.68
2023-03-17T01:19:00.399Z,6.50
2023-03-17T01:21:45.870Z,8.38
2023-03-17T01:24:31.225Z,8.75
2023-03-17T01:30:05.118Z,11.13
2023-03-17T01:32:50.403Z,11.25
2023-03-17T01:35:36.269Z,10.77
2023-03-17T01:38:22.052Z,14.00
2023-03-17T01:41:07.026Z,5.78
2023-03-17T01:43:52.012Z,8.05
2023-03-17T01:49:36.813Z,6.05
2023-03-17T01:52:22.512Z,7.20
2023-03-17T01:55:11.266Z,7.40
2023-03-17T01:57:57.025Z,7.70
2023-03-17T02:00:41.917Z,9.52
2023-03-17T02:03:29.181Z,9.32
2023-03-17T02:06:14.372Z,5.78
2023-03-17T02:09:00.902Z,10.90
2023-03-17T02:11:45.985Z,8.48
2023-03-17T02:14:30.849Z,7.07
2023-03-17T02:17:15.702Z,12.60
2023-03-17T02:23:01.312Z,6.93
2023-03-17T02:25:46.888Z,10.00
2023-03-17T02:28:35.855Z,8.65
2023-03-17T02:31:20.837Z,8.02
2023-03-17T02:34:05.555Z,8.05
2023-03-17T02:36:50.342Z,5.90
2023-03-17T02:39:35.782Z,5.95
2023-03-17T02:42:21.506Z,8.75
2023-03-17T02:45:08.435Z,7.53
2023-03-17T02:47:54.509Z,6.60
2023-03-17T02:50:39.703Z,9.05
2023-03-17T02:56:09.586Z,6.80
2023-03-17T02:58:54.401Z,7.65
2023-03-17T03:04:43.523Z,5.07
2023-03-17T03:07:28.579Z,10.32
2023-03-17T03:10:13.883Z,7.00
2023-03-17T03:12:58.694Z,8.18
2023-03-17T03:15:43.970Z,10.52
2023-03-17T03:18:28.837Z,13.23
2023-03-17T03:23:58.352Z,6.95
2023-03-17T03:26:43.300Z,11.07
2023-03-17T03:29:28.384Z,12.07
2023-03-17T03:32:13.248Z,8.82
2023-03-17T03:37:42.541Z,9.88
2023-03-17T03:43:22.558Z,10.35
2023-03-17T03:46:08.867Z,12.95
2023-03-17T03:51:39.342Z,6.13
2023-03-17T03:54:24.193Z,8.55
2023-03-17T03:57:09.101Z,9.93
2023-03-17T03:59:54.188Z,9.68
2023-03-17T04:02:44.503Z,8.23
2023-03-17T04:05:29.425Z,8.52
2023-03-17T04:10:59.257Z,6.50
2023-03-17T04:13:44.030Z,9.15
2023-03-17T04:16:29.178Z,9.88
2023-03-17T04:19:14.688Z,7.82
2023-03-17T04:21:59.484Z,7.72
2023-03-17T04:27:28.882Z,6.47
2023-03-17T04:30:16.173Z,8.45
2023-03-17T04:33:01.106Z,8.02
2023-03-17T04:35:45.931Z,7.60
2023-03-17T04:38:30.657Z,13.13
2023-03-17T04:41:15.390Z,9.32
2023-03-17T04:44:00.405Z,8.48
2023-03-17T04:49:31.347Z,10.20
2023-03-17T04:55:01.726Z,9.20
2023-03-17T05:00:38.052Z,8.63
2023-03-17T05:03:27.473Z,9.55
2023-03-17T05:06:13.057Z,9.10
2023-03-17T05:08:57.878Z,9.60
2023-03-17T05:11:42.761Z,9.15
2023-03-17T05:17:12.236Z,7.32
2023-03-17T05:22:41.781Z,7.72
2023-03-17T05:25:26.712Z,7.75
2023-03-17T05:30:56.948Z,8.57
2023-03-17T05:33:42.891Z,7.82
2023-03-17T05:36:27.665Z,11.32
2023-03-17T05:42:22.214Z,6.13
2023-03-17T05:47:52.359Z,8.45
2023-03-17T05:50:37.293Z,5.13
2023-03-17T05:53:22.960Z,6.57
2023-03-17T05:56:08.608Z,13.48
2023-03-17T05:58:53.585Z,10.27
2023-03-17T06:01:38.477Z,7.82
2023-03-17T06:07:09.689Z,9.85
2023-03-17T06:09:55.579Z,7.05
2023-03-17T06:12:40.480Z,9.80
2023-03-17T06:15:38.882Z,7.05
2023-03-17T06:18:23.930Z,10.55
2023-03-17T06:21:09.485Z,8.13
2023-03-17T06:24:01.805Z,9.27
2023-03-17T06:27:16.739Z,8.05
2023-03-17T06:30:40.534Z,7.47
2023-03-17T06:42:19.274Z,7.38
2023-03-17T06:46:18.569Z,9.45
2023-03-17T07:01:27.226Z,7.28
2023-03-17T07:04:15.877Z,7.57
2023-03-17T07:07:08.377Z,8.85
2023-03-17T07:09:55.745Z,6.72
2023-03-17T07:17:22.650Z,4.75
2023-03-17T07:20:14.346Z,6.38
2023-03-17T07:23:48.601Z,4.32
2023-03-17T07:27:08.870Z,3.92
2023-03-17T07:30:28.262Z,7.80
2023-03-17T07:33:20.547Z,6.78
2023-03-17T07:36:09.943Z,3.97
2023-03-17T07:42:14.854Z,4.63
2023-03-17T07:45:07.433Z,3.25
2023-03-17T07:47:57.533Z,3.65
2023-03-17T07:50:49.983Z,4.25
2023-03-17T07:57:24.126Z,5.10
2023-03-17T08:00:35.871Z,6.10
2023-03-17T08:03:21.301Z,6.25
2023-03-17T08:06:08.004Z,7.22
2023-03-17T08:08:55.139Z,8.88
2023-03-17T08:11:41.669Z,5.78
2023-03-17T08:18:02.612Z,7.50
2023-03-17T08:21:35.491Z,3.85
2023-03-17T08:28:00.013Z,4.10
2023-03-17T08:31:33.367Z,5.65
2023-03-17T08:34:27.142Z,5.63
2023-03-17T08:53:21.445Z,5.35
2023-03-17T08:56:08.158Z,4.15
2023-03-17T08:58:53.992Z,3.42
2023-03-17T09:01:44.915Z,4.18
2023-03-17T09:09:18.192Z,6.78
2023-03-17T09:12:08.943Z,5.28
2023-03-17T09:18:36.040Z,4.53
2023-03-17T09:21:56.415Z,4.43
2023-03-17T09:24:59.888Z,6.03
2023-03-17T09:31:38.254Z,4.18
2023-03-17T09:34:27.103Z,6.30
2023-03-17T09:37:13.120Z,4.85
2023-03-17T09:40:00.346Z,4.13
2023-03-17T09:43:28.518Z,5.18
2023-03-17T09:46:35.601Z,4.90
2023-03-17T09:54:18.989Z,4.15
2023-03-17T10:05:57.079Z,4.22
2023-03-17T10:09:44.494Z,3.63
2023-03-17T10:13:10.166Z,4.93
2023-03-17T10:16:31.154Z,3.97
2023-03-17T10:20:20.024Z,4.70
2023-03-17T10:23:35.130Z,5.90
2023-03-17T10:30:16.730Z,3.05
2023-03-17T10:33:52.509Z,6.60
2023-03-17T10:41:04.284Z,2.83
2023-03-17T10:44:07.665Z,3.20
2023-03-17T10:46:54.829Z,2.88
2023-03-17T10:54:01.418Z,2.22
2023-03-17T10:57:19.085Z,3.45
2023-03-17T11:03:49.310Z,6.05
2023-03-17T11:07:17.625Z,3.00
2023-03-17T11:13:29.928Z,5.72
2023-03-17T11:16:24.164Z,2.55
2023-03-17T11:19:18.635Z,3.85
2023-03-17T11:22:39.941Z,2.28
2023-03-17T11:25:27.891Z,6.72
2023-03-17T11:28:27.773Z,3.90
2023-03-17T11:35:24.529Z,2.58
2023-03-17T11:38:36.411Z,3.00
2023-03-17T11:42:03.024Z,3.22
2023-03-17T11:44:54.249Z,3.97
2023-03-17T11:48:03.542Z,3.00
2023-03-17T11:51:16.410Z,3.42
2023-03-17T11:54:39.494Z,3.15
2023-03-17T11:57:47.483Z,3.60
2023-03-17T12:00:43.856Z,3.92
2023-03-17T12:04:14.785Z,2.13
2023-03-17T12:07:10.101Z,2.97
2023-03-17T12:10:16.848Z,3.20
2023-03-17T12:13:06.684Z,4.13
2023-03-17T12:16:06.928Z,4.20
2023-03-17T12:19:16.061Z,3.55
2023-03-17T12:22:14.562Z,3.58
2023-03-17T12:25:25.128Z,2.08
2023-03-17T12:28:13.138Z,2.35
2023-03-17T12:31:08.556Z,3.42
2023-03-17T12:34:25.877Z,8.70
2023-03-17T12:37:17.225Z,6.93
2023-03-17T12:40:09.751Z,3.00
2023-03-17T12:43:27.643Z,4.55
2023-03-17T12:46:28.232Z,4.60
2023-03-17T12:49:32.050Z,4.85
2023-03-17T12:52:57.489Z,2.63
2023-03-17T12:55:46.811Z,6.13
2023-03-17T12:58:58.049Z,3.75
2023-03-17T13:01:46.020Z,3.67
2023-03-17T13:04:34.892Z,9.95
2023-03-17T13:07:43.214Z,17.33
2023-03-17T13:10:47.440Z,9.07
2023-03-17T13:13:49.142Z,3.95
2023-03-17T13:16:40.572Z,1.70
2023-03-17T13:19:31.896Z,3.03
2023-03-17T13:22:19.827Z,2.92
2023-03-17T13:25:19.954Z,2.60
2023-03-17T13:28:46.985Z,2.85
2023-03-17T13:31:36.171Z,3.08
2023-03-17T13:34:21.341Z,3.83
2023-03-17T13:37:21.758Z,3.17
2023-03-17T13:40:09.469Z,1.38
2023-03-17T13:43:19.308Z,2.58
2023-03-17T13:46:22.490Z,2.33
2023-03-17T13:49:20.635Z,3.25
2023-03-17T13:52:21.470Z,2.30
2023-03-17T13:55:19.661Z,2.92
2023-03-17T13:58:10.486Z,2.88
2023-03-17T14:01:02.123Z,3.83
2023-03-17T14:03:49.945Z,2.63
2023-03-17T14:06:37.512Z,3.92
2023-03-17T14:09:40.487Z,1.65
2023-03-17T14:12:33.015Z,3.40
2023-03-17T14:15:26.616Z,4.18
2023-03-17T14:18:20.889Z,1.48
2023-03-17T14:21:18.588Z,3.30
2023-03-17T14:24:22.689Z,3.03
2023-03-17T14:27:08.436Z,2.13
2023-03-17T14:29:53.287Z,2.65
2023-03-17T14:32:38.230Z,2.25
2023-03-17T14:35:23.019Z,4.63
2023-03-17T14:38:28.159Z,2.85
2023-03-17T14:41:27.118Z,2.40
2023-03-17T14:44:11.648Z,1.70
2023-03-17T14:47:06.699Z,2.33
2023-03-17T14:49:53.844Z,3.42
2023-03-17T14:52:40.568Z,3.55
2023-03-17T14:55:37.679Z,2.72
2023-03-17T15:01:31.824Z,4.07
2023-03-17T15:04:25.049Z,1.65
2023-03-17T15:07:32.029Z,3.35
2023-03-17T15:10:25.683Z,5.30
2023-03-17T15:13:12.423Z,2.45
2023-03-17T15:15:58.402Z,3.47
2023-03-17T15:18:43.973Z,3.25
2023-03-17T15:21:41.062Z,3.00
2023-03-17T15:24:36.272Z,3.92
2023-03-17T15:27:20.923Z,2.25
2023-03-17T15:30:06.830Z,2.95
2023-03-17T15:32:57.721Z,5.05
2023-03-17T15:35:42.565Z,2.42
2023-03-17T15:38:27.749Z,2.13
2023-03-17T15:41:15.336Z,3.90
2023-03-17T15:43:59.950Z,2.80
2023-03-17T15:46:45.850Z,2.83
2023-03-17T15:49:30.439Z,3.15
2023-03-17T15:52:21.073Z,5.28
2023-03-17T15:55:16.230Z,10.65
2023-03-17T15:58:00.948Z,22.65
2023-03-17T16:00:51.932Z,25.45
2023-03-17T16:06:23.715Z,15.90
2023-03-17T16:09:16.976Z,13.52
2023-03-17T16:12:02.380Z,11.27
2023-03-17T16:14:47.560Z,12.20
2023-03-17T16:17:32.508Z,15.90
2023-03-17T16:20:25.444Z,20.17
2023-03-17T16:23:17.284Z,27.88
2023-03-17T16:26:14.253Z,28.95
2023-03-17T16:29:00.189Z,23.52
2023-03-17T16:31:50.870Z,19.40
2023-03-17T16:34:35.767Z,9.93
2023-03-17T16:37:20.886Z,11.40
2023-03-17T16:40:23.520Z,8.77
2023-03-17T16:43:25.020Z,9.50
2023-03-17T16:46:11.172Z,11.23
2023-03-17T16:48:56.400Z,13.43
2023-03-17T16:51:44.917Z,7.88
2023-03-17T16:54:32.665Z,10.93
2023-03-17T16:57:17.548Z,12.88
2023-03-17T17:00:04.844Z,10.32
2023-03-17T17:02:49.934Z,11.23
2023-03-17T17:05:35.214Z,13.35
2023-03-17T17:08:20.212Z,12.18
2023-03-17T17:11:05.978Z,10.63
2023-03-17T17:13:51.097Z,13.52
2023-03-17T17:16:39.316Z,11.88
2023-03-17T17:19:24.374Z,12.23
2023-03-17T17:22:10.920Z,17.35
2023-03-17T17:24:56.108Z,12.48
2023-03-17T17:27:42.822Z,14.30
2023-03-17T17:30:30.022Z,18.15
2023-03-17T17:33:16.018Z,33.95
2023-03-17T17:36:05.882Z,28.63
2023-03-17T17:38:51.334Z,36.42
2023-03-17T17:41:36.358Z,41.72
2023-03-17T17:44:21.506Z,43.72
2023-03-17T17:47:06.635Z,30.42
2023-03-17T17:49:54.218Z,24.60
2023-03-17T17:52:38.923Z,16.05
2023-03-17T17:55:23.965Z,12.90
2023-03-17T17:58:13.057Z,10.30
2023-03-17T18:00:57.764Z,14.95
2023-03-17T18:03:42.741Z,18.73
2023-03-17T18:06:27.623Z,20.25
2023-03-17T18:09:13.997Z,29.67
2023-03-17T18:11:59.242Z,36.53
2023-03-17T18:14:44.084Z,35.80
2023-03-17T18:17:31.990Z,35.58
2023-03-17T18:20:20.805Z,36.55
2023-03-17T18:23:05.358Z,32.92
2023-03-17T18:25:50.669Z,30.10
2023-03-17T18:28:35.397Z,31.77
2023-03-17T18:31:25.532Z,31.00
2023-03-17T18:34:19.470Z,33.10
2023-03-17T18:37:06.969Z,27.55
2023-03-17T18:40:11.529Z,29.05
2023-03-17T18:42:56.774Z,31.45
2023-03-17T18:45:41.650Z,31.50
2023-03-17T18:48:26.665Z,27.75
2023-03-17T18:51:11.558Z,36.40
2023-03-17T18:53:56.222Z,31.73
2023-03-17T18:56:40.960Z,29.13
2023-03-17T18:59:26.538Z,29.73
2023-03-17T19:02:11.181Z,20.05
2023-03-17T19:04:56.337Z,21.30
2023-03-17T19:07:41.695Z,14.90
2023-03-17T19:10:26.469Z,12.95
2023-03-17T19:13:12.753Z,9.15
2023-03-17T19:15:57.400Z,6.20
2023-03-17T19:18:42.617Z,5.65
2023-03-17T19:21:27.799Z,5.68
2023-03-17T19:24:14.357Z,5.63
2023-03-17T19:26:59.185Z,5.35
2023-03-17T19:29:43.834Z,5.45
2023-03-17T19:32:28.812Z,6.70
2023-03-17T19:35:13.666Z,5.22
2023-03-17T19:37:58.404Z,4.45
2023-03-17T19:40:43.299Z,7.75
2023-03-17T19:43:40.019Z,6.40
2023-03-17T19:46:29.360Z,7.55
2023-03-17T19:49:14.060Z,6.55
2023-03-17T19:51:59.038Z,6.57
2023-03-17T19:54:45.333Z,7.38
2023-03-17T19:57:31.291Z,9.18
2023-03-17T20:00:16.373Z,5.60
2023-03-17T20:03:02.096Z,9.10
2023-03-17T20:05:46.906Z,9.93
2023-03-17T20:08:33.025Z,8.75
2023-03-17T20:11:18.780Z,9.82
2023-03-17T20:14:04.040Z,8.10
2023-03-17T20:16:48.989Z,9.70
2023-03-17T20:19:38.459Z,9.80
2023-03-17T20:22:23.795Z,11.15
2023-03-17T20:25:09.706Z,10.90
2023-03-17T20:27:54.451Z,8.93
2023-03-17T20:30:40.182Z,11.40
2023-03-17T20:33:25.353Z,10.88
2023-03-17T20:36:09.897Z,9.60
2023-03-17T20:38:54.857Z,9.90
2023-03-17T20:41:40.656Z,10.45
2023-03-17T20:44:25.458Z,7.97
2023-03-17T20:47:10.800Z,9.05
2023-03-17T20:49:58.059Z,11.90
2023-03-17T20:52:43.060Z,8.10
2023-03-17T20:55:28.297Z,7.55
2023-03-17T20:58:13.032Z,8.88
2023-03-17T21:00:57.926Z,9.32
2023-03-17T21:03:44.372Z,9.55
2023-03-17T21:06:29.224Z,8.43
2023-03-17T21:09:14.047Z,10.75
2023-03-17T21:11:58.998Z,10.55
2023-03-17T21:14:44.303Z,9.57
2023-03-17T21:17:29.393Z,8.85
2023-03-17T21:20:14.348Z,8.07
2023-03-17T21:22:59.833Z,7.88
2023-03-17T21:25:44.891Z,7.03
2023-03-17T21:28:30.750Z,5.97
2023-03-17T21:31:16.642Z,6.13
2023-03-17T21:34:01.613Z,6.05
2023-03-17T21:36:46.556Z,6.15
2023-03-17T21:39:32.330Z,5.78
2023-03-17T21:42:17.382Z,5.40
2023-03-17T21:45:02.317Z,6.00
2023-03-17T21:47:47.544Z,6.78
2023-03-17T21:50:33.582Z,9.82
2023-03-17T21:53:18.650Z,7.65
2023-03-17T21:56:03.476Z,5.97
2023-03-17T21:58:48.391Z,8.25
2023-03-17T22:01:34.080Z,6.25
2023-03-17T22:04:18.903Z,7.03
2023-03-17T22:07:03.997Z,6.10
2023-03-17T22:09:52.656Z,8.30
2023-03-17T22:12:38.133Z,6.15
2023-03-17T22:15:22.853Z,6.50
2023-03-17T22:18:09.064Z,10.30
2023-03-17T22:20:55.267Z,7.20
2023-03-17T22:23:40.662Z,6.13
2023-03-17T22:26:25.276Z,8.07
2023-03-17T22:29:10.138Z,7.88
2023-03-17T22:31:55.846Z,8.75
2023-03-17T22:34:40.539Z,7.68
2023-03-17T22:37:26.093Z,7.90
2023-03-17T22:40:11.320Z,8.38
2023-03-17T22:42:57.502Z,6.63
2023-03-17T22:45:42.255Z,6.60
2023-03-17T22:48:27.566Z,9.05
2023-03-17T22:51:16.137Z,6.50
2023-03-17T22:54:01.136Z,8.45
2023-03-17T22:56:46.084Z,9.02
2023-03-17T22:59:31.004Z,6.38
2023-03-17T23:02:18.444Z,6.55
2023-03-17T23:05:03.638Z,5.10
2023-03-17T23:07:50.758Z,7.32
2023-03-17T23:10:35.916Z,6.95
2023-03-17T23:13:21.714Z,6.25
2023-03-17T23:16:07.331Z,6.30
2023-03-17T23:18:52.310Z,4.47
2023-03-17T23:21:38.763Z,7.32
2023-03-17T23:24:23.276Z,4.60
2023-03-17T23:27:08.283Z,5.43
2023-03-17T23:29:53.437Z,5.53
2023-03-17T23:32:38.753Z,4.45
2023-03-17T23:35:24.169Z,4.70
2023-03-17T23:38:10.373Z,5.55
2023-03-17T23:40:56.763Z,4.65
2023-03-17T23:43:41.566Z,4.25
2023-03-17T23:49:11.703Z,3.78
2023-03-17T23:51:57.138Z,7.07
2023-03-17T23:54:42.058Z,5.55
2023-03-17T23:57:26.958Z,5.90
